createdAt,value
2022-12-03T00:00:29.755Z,2.03
2022-12-03T00:02:56.260Z,2.03
2022-12-03T00:05:22.823Z,2.00
2022-12-03T00:07:49.285Z,2.00
2022-12-03T00:10:15.746Z,2.00
2022-12-03T00:12:42.172Z,2.01
2022-12-03T00:15:09.458Z,2.02
2022-12-03T00:17:36.144Z,2.03
2022-12-03T00:20:02.912Z,2.04
2022-12-03T00:22:29.260Z,2.00
2022-12-03T00:24:55.991Z,2.00
2022-12-03T00:27:22.516Z,2.03
2022-12-03T00:29:48.919Z,2.02
2022-12-03T00:32:15.277Z,2.01
2022-12-03T00:34:41.698Z,2.01
2022-12-03T00:37:08.063Z,2.02
2022-12-03T00:39:34.430Z,2.03
2022-12-03T00:42:00.793Z,2.02
2022-12-03T00:44:27.207Z,2.00
2022-12-03T00:46:53.634Z,2.01
2022-12-03T00:49:20.032Z,2.02
2022-12-03T00:51:46.462Z,2.02
2022-12-03T00:54:12.840Z,2.01
2022-12-03T00:56:39.291Z,2.02
2022-12-03T00:59:05.654Z,1.98
2022-12-03T01:01:32.140Z,1.99
2022-12-03T01:03:58.616Z,1.94
2022-12-03T01:06:25.257Z,1.95
2022-12-03T01:08:51.770Z,1.94
2022-12-03T01:11:36.822Z,1.92
2022-12-03T01:14:24.171Z,1.92
2022-12-03T01:16:50.604Z,1.93
2022-12-03T01:19:17.255Z,1.93
2022-12-03T01:21:51.579Z,1.96
2022-12-03T01:24:19.277Z,1.96
2022-12-03T01:26:45.702Z,1.95
2022-12-03T01:29:12.212Z,1.95
2022-12-03T01:31:57.258Z,1.95
2022-12-03T01:34:23.684Z,1.95
2022-12-03T01:36:52.333Z,1.95
2022-12-03T01:39:19.457Z,1.98
2022-12-03T01:41:48.133Z,1.99
2022-12-03T01:44:18.789Z,2.00
2022-12-03T01:46:46.494Z,1.99
2022-12-03T01:49:23.354Z,2.01
2022-12-03T01:51:51.685Z,2.02
2022-12-03T01:54:22.359Z,2.04
2022-12-03T01:56:49.228Z,2.02
2022-12-03T01:59:18.419Z,2.04
2022-12-03T02:01:45.402Z,2.03
2022-12-03T02:04:14.261Z,2.04
2022-12-03T02:06:42.168Z,2.04
2022-12-03T02:09:13.125Z,2.07
2022-12-03T02:11:44.278Z,2.06
2022-12-03T02:14:17.046Z,2.06
2022-12-03T02:16:45.358Z,2.06
2022-12-03T02:19:41.311Z,2.09
2022-12-03T02:22:32.349Z,2.10
2022-12-03T02:25:33.174Z,2.11
2022-12-03T02:28:00.774Z,2.10
2022-12-03T02:30:28.912Z,2.11
2022-12-03T02:32:56.271Z,2.10
2022-12-03T02:35:26.604Z,2.11
2022-12-03T02:38:02.594Z,2.13
2022-12-03T02:40:32.588Z,2.13
2022-12-03T02:43:02.241Z,2.13
2022-12-03T02:45:39.471Z,2.14
2022-12-03T02:48:26.181Z,2.15
2022-12-03T02:50:59.306Z,2.15
2022-12-03T02:53:33.205Z,2.15
2022-12-03T02:56:01.608Z,2.15
2022-12-03T02:58:31.264Z,2.16
2022-12-03T03:00:59.234Z,2.16
2022-12-03T03:03:28.605Z,2.18
2022-12-03T03:05:56.683Z,2.18
2022-12-03T03:08:25.315Z,2.19
2022-12-03T03:10:52.175Z,2.20
2022-12-03T03:13:21.422Z,2.21
2022-12-03T03:15:48.388Z,2.20
2022-12-03T03:18:15.321Z,2.21
2022-12-03T03:20:42.413Z,2.21
2022-12-03T03:23:11.643Z,2.24
2022-12-03T03:25:43.626Z,2.24
2022-12-03T03:28:10.429Z,2.23
2022-12-03T03:30:39.017Z,2.24
2022-12-03T03:33:05.520Z,2.24
2022-12-03T03:35:32.221Z,2.25
2022-12-03T03:37:59.604Z,2.25
2022-12-03T03:40:26.903Z,2.25
2022-12-03T03:42:53.982Z,2.26
2022-12-03T03:45:25.710Z,2.28
2022-12-03T03:47:57.306Z,2.28
2022-12-03T03:50:24.111Z,2.27
2022-12-03T03:52:50.735Z,2.29
2022-12-03T03:55:19.033Z,2.29
2022-12-03T03:57:45.531Z,2.29
2022-12-03T04:00:12.575Z,2.31
2022-12-03T04:02:40.294Z,2.29
2022-12-03T04:05:07.769Z,2.30
2022-12-03T04:07:34.258Z,2.30
2022-12-03T04:10:20.703Z,2.31
2022-12-03T04:12:56.056Z,2.31
2022-12-03T04:15:22.901Z,2.31
2022-12-03T04:18:08.289Z,2.31
2022-12-03T04:20:34.700Z,2.32
2022-12-03T04:23:01.065Z,2.31
2022-12-03T04:25:46.340Z,2.31
2022-12-03T04:28:31.403Z,2.31
2022-12-03T04:30:57.935Z,2.31
2022-12-03T04:33:43.170Z,2.30
2022-12-03T04:36:10.285Z,2.32
2022-12-03T04:38:36.683Z,2.31
2022-12-03T04:41:06.136Z,2.31
2022-12-03T04:43:34.683Z,2.32
2022-12-03T04:46:02.647Z,2.32
2022-12-03T04:48:29.108Z,2.32
2022-12-03T04:50:55.495Z,2.32
2022-12-03T04:53:21.925Z,2.31
2022-12-03T04:55:48.515Z,2.31
2022-12-03T04:58:14.970Z,2.30
2022-12-03T05:00:41.429Z,2.29
2022-12-03T05:03:07.859Z,2.30
2022-12-03T05:05:34.328Z,2.31
2022-12-03T05:08:00.813Z,2.32
2022-12-03T05:10:27.272Z,2.31
2022-12-03T05:12:53.768Z,2.31
2022-12-03T05:15:20.160Z,2.33
2022-12-03T05:17:46.550Z,2.34
2022-12-03T05:20:32.060Z,2.31
2022-12-03T05:22:58.482Z,2.30
2022-12-03T05:25:24.839Z,2.28
2022-12-03T05:27:51.190Z,2.28
2022-12-03T05:30:17.739Z,2.30
2022-12-03T05:32:44.216Z,2.32
2022-12-03T05:35:10.977Z,2.32
2022-12-03T05:37:37.481Z,2.32
2022-12-03T05:40:04.361Z,2.32
2022-12-03T05:42:49.470Z,2.32
2022-12-03T05:45:15.927Z,2.33
2022-12-03T05:47:42.480Z,2.33
2022-12-03T05:50:08.993Z,2.34
2022-12-03T05:52:35.426Z,2.31
2022-12-03T05:55:02.122Z,2.31
2022-12-03T05:57:28.529Z,2.29
2022-12-03T05:59:54.941Z,2.26
2022-12-03T06:02:21.585Z,2.24
2022-12-03T06:04:48.187Z,2.27
2022-12-03T06:07:14.579Z,2.26
2022-12-03T06:09:41.148Z,2.27
2022-12-03T06:12:08.683Z,2.26
2022-12-03T06:14:35.718Z,2.25
2022-12-03T06:17:03.021Z,2.25
2022-12-03T06:19:29.427Z,2.23
2022-12-03T06:21:56.074Z,2.24
2022-12-03T06:24:22.514Z,2.26
2022-12-03T06:26:48.879Z,2.25
2022-12-03T06:29:15.302Z,2.24
2022-12-03T06:31:41.937Z,2.24
2022-12-03T06:34:08.499Z,2.24
2022-12-03T06:36:34.977Z,2.23
2022-12-03T06:39:01.372Z,2.22
2022-12-03T06:41:27.760Z,2.21
2022-12-03T06:43:54.187Z,2.21
2022-12-03T06:46:20.686Z,2.21
2022-12-03T06:48:47.135Z,2.22
2022-12-03T06:51:13.535Z,2.22
2022-12-03T06:53:39.922Z,2.23
2022-12-03T06:56:06.568Z,2.22
2022-12-03T06:58:32.921Z,2.24
2022-12-03T07:00:59.279Z,2.22
2022-12-03T07:03:25.739Z,2.21
2022-12-03T07:05:52.175Z,2.20
2022-12-03T07:08:18.635Z,2.18
2022-12-03T07:10:45.088Z,2.19
2022-12-03T07:13:11.538Z,2.17
2022-12-03T07:15:37.985Z,2.15
2022-12-03T07:18:04.537Z,2.16
2022-12-03T07:20:30.945Z,2.15
2022-12-03T07:22:57.328Z,2.14
2022-12-03T07:25:23.993Z,2.13
2022-12-03T07:27:50.739Z,2.11
2022-12-03T07:30:17.796Z,2.08
2022-12-03T07:32:44.227Z,2.08
2022-12-03T07:35:10.628Z,2.09
2022-12-03T07:37:37.030Z,2.09
2022-12-03T07:40:04.400Z,2.08
2022-12-03T07:42:30.867Z,2.04
2022-12-03T07:44:57.280Z,2.04
2022-12-03T07:47:23.745Z,2.06
2022-12-03T07:49:50.150Z,2.06
2022-12-03T07:52:16.573Z,2.02
2022-12-03T07:54:42.978Z,2.02
2022-12-03T07:57:09.465Z,2.01
2022-12-03T07:59:35.845Z,2.00
2022-12-03T08:02:02.641Z,2.01
2022-12-03T08:04:29.441Z,2.01
2022-12-03T08:06:56.000Z,2.01
2022-12-03T08:09:22.679Z,2.01
2022-12-03T08:11:49.411Z,1.99
2022-12-03T08:14:19.217Z,1.97
2022-12-03T08:16:47.720Z,2.01
2022-12-03T08:19:16.098Z,2.02
2022-12-03T08:21:43.216Z,2.03
2022-12-03T08:24:18.387Z,2.02
2022-12-03T08:26:46.706Z,1.99
2022-12-03T08:29:16.992Z,1.96
2022-12-03T08:31:55.304Z,1.95
2022-12-03T08:34:24.222Z,1.95
2022-12-03T08:37:05.877Z,1.95
2022-12-03T08:39:35.742Z,1.96
2022-12-03T08:42:37.431Z,1.94
2022-12-03T08:45:31.896Z,1.94
2022-12-03T08:48:00.388Z,1.92
2022-12-03T08:50:33.516Z,1.89
2022-12-03T08:53:28.461Z,1.93
2022-12-03T08:56:00.132Z,1.97
2022-12-03T08:58:36.872Z,1.95
2022-12-03T09:01:03.327Z,1.96
2022-12-03T09:03:31.497Z,1.97
2022-12-03T09:05:58.333Z,1.92
2022-12-03T09:08:24.715Z,1.89
2022-12-03T09:10:51.229Z,1.93
2022-12-03T09:13:17.618Z,1.90
2022-12-03T09:15:44.053Z,1.89
2022-12-03T09:18:10.573Z,1.88
2022-12-03T09:20:36.992Z,1.88
2022-12-03T09:23:03.522Z,1.88
2022-12-03T09:25:29.897Z,1.89
2022-12-03T09:27:56.275Z,1.88
2022-12-03T09:30:22.853Z,1.89
2022-12-03T09:32:49.443Z,1.90
2022-12-03T09:35:16.225Z,1.91
2022-12-03T09:37:42.625Z,1.91
2022-12-03T09:40:10.317Z,1.95
2022-12-03T09:42:37.988Z,1.92
2022-12-03T09:45:12.295Z,1.88
2022-12-03T09:47:42.615Z,1.89
2022-12-03T09:50:14.266Z,1.92
2022-12-03T09:52:40.639Z,1.90
2022-12-03T09:55:20.896Z,1.91
2022-12-03T09:57:47.752Z,1.87
2022-12-03T10:00:16.860Z,1.87
2022-12-03T10:02:43.282Z,1.88
2022-12-03T10:05:09.852Z,1.90
2022-12-03T10:07:37.002Z,1.90
2022-12-03T10:10:04.096Z,1.90
2022-12-03T10:12:30.575Z,1.83
2022-12-03T10:14:57.164Z,1.79
2022-12-03T10:17:23.723Z,1.81
2022-12-03T10:19:50.255Z,1.87
2022-12-03T10:22:16.709Z,1.89
2022-12-03T10:24:44.808Z,1.86
2022-12-03T10:27:24.903Z,1.88
2022-12-03T10:29:59.139Z,1.87
2022-12-03T10:32:50.127Z,1.91
2022-12-03T10:35:22.715Z,1.90
2022-12-03T10:38:03.612Z,1.91
2022-12-03T10:40:32.606Z,1.90
2022-12-03T10:43:17.740Z,1.92
2022-12-03T10:46:04.360Z,1.86
2022-12-03T10:48:31.284Z,1.85
2022-12-03T10:51:10.680Z,1.86
2022-12-03T10:53:40.251Z,1.84
2022-12-03T10:56:11.959Z,1.90
2022-12-03T10:58:40.399Z,1.94
2022-12-03T11:01:18.240Z,1.96
2022-12-03T11:03:45.388Z,1.94
2022-12-03T11:06:20.430Z,1.88
2022-12-03T11:08:57.137Z,1.89
2022-12-03T11:11:28.639Z,1.91
2022-12-03T11:13:54.994Z,1.86
2022-12-03T11:16:39.610Z,1.91
2022-12-03T11:19:33.247Z,1.90
2022-12-03T11:22:05.672Z,1.88
2022-12-03T11:24:40.073Z,1.86
2022-12-03T11:27:16.435Z,1.82
2022-12-03T11:30:01.889Z,1.86
2022-12-03T11:32:43.614Z,1.79
2022-12-03T11:35:27.741Z,1.74
2022-12-03T11:37:54.423Z,1.72
2022-12-03T11:40:20.684Z,1.74
2022-12-03T11:42:48.988Z,1.72
2022-12-03T11:45:30.323Z,1.73
2022-12-03T11:48:02.146Z,1.71
2022-12-03T11:50:40.343Z,1.70
2022-12-03T11:53:16.130Z,1.71
2022-12-03T11:55:52.038Z,1.63
2022-12-03T11:58:25.462Z,1.63
2022-12-03T12:01:00.085Z,1.65
2022-12-03T12:03:32.697Z,1.62
2022-12-03T12:06:11.041Z,1.65
2022-12-03T12:08:50.717Z,1.67
2022-12-03T12:11:36.543Z,1.65
2022-12-03T12:14:04.833Z,1.64
2022-12-03T12:16:41.017Z,1.69
2022-12-03T12:19:37.190Z,1.71
2022-12-03T12:22:12.604Z,1.66
2022-12-03T12:24:48.172Z,1.59
2022-12-03T12:27:21.433Z,1.56
2022-12-03T12:29:56.671Z,1.58
2022-12-03T12:32:29.675Z,1.55
2022-12-03T12:35:12.438Z,1.52
2022-12-03T12:37:58.076Z,1.53
2022-12-03T12:40:31.792Z,1.53
2022-12-03T12:43:11.758Z,1.55
2022-12-03T12:45:42.941Z,1.53
2022-12-03T12:48:26.276Z,1.53
2022-12-03T12:51:10.818Z,1.49
2022-12-03T12:53:39.357Z,1.50
2022-12-03T12:56:28.190Z,1.45
2022-12-03T12:59:09.274Z,1.42
2022-12-03T13:01:36.271Z,1.41
2022-12-03T13:04:13.762Z,1.38
2022-12-03T13:06:40.744Z,1.37
2022-12-03T13:09:26.943Z,1.42
2022-12-03T13:11:59.084Z,1.43
2022-12-03T13:14:43.206Z,1.44
2022-12-03T13:17:19.036Z,1.48
2022-12-03T13:19:48.464Z,1.45
2022-12-03T13:22:21.720Z,1.42
2022-12-03T13:24:54.311Z,1.43
2022-12-03T13:27:34.734Z,1.37
2022-12-03T13:30:23.274Z,1.34
2022-12-03T13:32:49.704Z,1.32
2022-12-03T13:35:26.778Z,1.35
2022-12-03T13:37:53.555Z,1.34
2022-12-03T13:40:31.721Z,1.37
2022-12-03T13:42:59.048Z,1.33
2022-12-03T13:45:36.812Z,1.33
2022-12-03T13:48:18.637Z,1.34
2022-12-03T13:50:46.054Z,1.35
2022-12-03T13:53:41.811Z,1.35
2022-12-03T13:56:30.790Z,1.30
2022-12-03T13:59:00.091Z,1.31
2022-12-03T14:01:27.877Z,1.33
2022-12-03T14:03:54.333Z,1.33
2022-12-03T14:06:20.780Z,1.28
2022-12-03T14:08:47.164Z,1.26
2022-12-03T14:11:33.582Z,1.26
2022-12-03T14:14:00.128Z,1.23
2022-12-03T14:16:26.750Z,1.24
2022-12-03T14:18:53.201Z,1.27
2022-12-03T14:21:19.629Z,1.28
2022-12-03T14:23:46.174Z,1.28
2022-12-03T14:26:12.613Z,1.30
2022-12-03T14:28:39.012Z,1.32
2022-12-03T14:31:05.538Z,1.25
2022-12-03T14:33:31.898Z,1.21
2022-12-03T14:35:58.773Z,1.23
2022-12-03T14:38:25.194Z,1.21
2022-12-03T14:40:51.689Z,1.21
2022-12-03T14:43:18.074Z,1.20
2022-12-03T14:45:44.567Z,1.22
2022-12-03T14:48:11.002Z,1.21
2022-12-03T14:50:37.457Z,1.17
2022-12-03T14:53:03.872Z,1.21
2022-12-03T14:55:30.347Z,1.20
2022-12-03T14:57:56.670Z,1.19
2022-12-03T15:00:23.004Z,1.21
2022-12-03T15:02:49.467Z,1.22
2022-12-03T15:05:15.830Z,1.19
2022-12-03T15:07:42.300Z,1.18
2022-12-03T15:10:09.134Z,1.19
2022-12-03T15:12:35.572Z,1.17
2022-12-03T15:15:01.944Z,1.16
2022-12-03T15:17:31.996Z,1.14
2022-12-03T15:19:58.798Z,1.14
2022-12-03T15:22:25.282Z,1.13
2022-12-03T15:24:51.642Z,1.09
2022-12-03T15:27:18.028Z,1.07
2022-12-03T15:29:44.429Z,1.08
2022-12-03T15:32:10.966Z,1.06
2022-12-03T15:34:37.335Z,1.08
2022-12-03T15:37:03.726Z,1.08
2022-12-03T15:39:30.113Z,1.05
2022-12-03T15:41:56.555Z,1.07
2022-12-03T15:44:23.003Z,1.07
2022-12-03T15:46:49.438Z,1.10
2022-12-03T15:49:15.907Z,1.09
2022-12-03T15:51:42.456Z,1.00
2022-12-03T15:54:08.877Z,1.01
2022-12-03T15:56:37.573Z,1.04
2022-12-03T15:59:04.686Z,0.98
2022-12-03T16:01:31.254Z,1.00
2022-12-03T16:03:57.979Z,0.99
2022-12-03T16:06:24.482Z,0.99
2022-12-03T16:08:50.940Z,0.98
2022-12-03T16:11:17.660Z,1.02
2022-12-03T16:13:44.112Z,1.03
2022-12-03T16:16:10.639Z,1.03
2022-12-03T16:18:37.101Z,1.00
2022-12-03T16:21:03.537Z,0.99
2022-12-03T16:23:29.922Z,0.97
2022-12-03T16:25:56.372Z,0.96
2022-12-03T16:28:22.754Z,0.97
2022-12-03T16:30:49.204Z,0.96
2022-12-03T16:33:15.624Z,0.91
2022-12-03T16:35:42.041Z,0.94
2022-12-03T16:38:08.434Z,0.92
2022-12-03T16:40:34.826Z,0.93
2022-12-03T16:43:03.305Z,0.91
2022-12-03T16:45:29.851Z,0.93
2022-12-03T16:47:56.570Z,0.92
2022-12-03T16:50:29.580Z,0.92
2022-12-03T16:52:57.448Z,0.88
2022-12-03T16:55:23.949Z,0.87
2022-12-03T16:57:50.359Z,0.85
2022-12-03T17:00:17.161Z,0.86
2022-12-03T17:02:43.693Z,0.86
2022-12-03T17:05:10.244Z,0.84
2022-12-03T17:07:36.754Z,0.82
2022-12-03T17:10:04.175Z,0.85
2022-12-03T17:12:54.210Z,0.80
2022-12-03T17:15:17.060Z,0.76
2022-12-03T17:17:43.418Z,0.72
2022-12-03T17:20:12.493Z,0.72
2022-12-03T17:22:41.871Z,0.73
2022-12-03T17:25:08.971Z,0.73
2022-12-03T17:27:37.032Z,0.76
2022-12-03T17:30:06.614Z,0.77
2022-12-03T17:32:33.065Z,0.76
2022-12-03T17:34:59.678Z,0.71
2022-12-03T17:37:26.133Z,0.71
2022-12-03T17:39:52.873Z,0.70
2022-12-03T17:42:19.483Z,0.71
2022-12-03T17:44:45.845Z,0.70
2022-12-03T17:47:12.351Z,0.69
2022-12-03T17:49:38.698Z,0.70
2022-12-03T17:52:05.105Z,0.70
2022-12-03T17:54:49.327Z,0.71
2022-12-03T17:57:17.852Z,0.72
2022-12-03T17:59:44.260Z,0.67
2022-12-03T18:02:10.811Z,0.67
2022-12-03T18:04:37.251Z,0.66
2022-12-03T18:07:03.750Z,0.64
2022-12-03T18:09:30.299Z,0.60
2022-12-03T18:11:56.774Z,0.60
2022-12-03T18:14:23.151Z,0.58
2022-12-03T18:16:49.605Z,0.57
2022-12-03T18:19:16.472Z,0.57
2022-12-03T18:21:43.073Z,0.57
2022-12-03T18:24:09.772Z,0.57
2022-12-03T18:26:36.285Z,0.57
2022-12-03T18:29:03.328Z,0.61
2022-12-03T18:31:29.783Z,0.58
2022-12-03T18:33:56.239Z,0.61
2022-12-03T18:36:29.879Z,0.64
2022-12-03T18:38:58.388Z,0.58
2022-12-03T18:41:25.233Z,0.58
2022-12-03T18:43:51.964Z,0.55
2022-12-03T18:46:45.170Z,0.56
2022-12-03T18:49:05.973Z,0.56
2022-12-03T18:51:32.504Z,0.58
2022-12-03T18:53:59.163Z,0.57
2022-12-03T18:56:25.675Z,0.56
2022-12-03T18:58:52.303Z,0.56
2022-12-03T19:01:21.361Z,0.56
2022-12-03T19:03:49.225Z,0.59
2022-12-03T19:06:19.087Z,0.60
2022-12-03T19:08:46.792Z,0.60
2022-12-03T19:11:13.422Z,0.57
2022-12-03T19:13:51.881Z,0.56
2022-12-03T19:16:18.419Z,0.56
2022-12-03T19:18:45.009Z,0.55
2022-12-03T19:21:16.570Z,0.56
2022-12-03T19:24:04.173Z,0.52
2022-12-03T19:26:29.635Z,0.53
2022-12-03T19:28:56.110Z,0.54
2022-12-03T19:31:30.699Z,0.51
2022-12-03T19:33:57.353Z,0.48
2022-12-03T19:36:29.173Z,0.48
2022-12-03T19:38:57.844Z,0.46
2022-12-03T19:41:30.683Z,0.49
2022-12-03T19:43:58.001Z,0.47
2022-12-03T19:46:28.797Z,0.47
2022-12-03T19:48:55.217Z,0.44
2022-12-03T19:51:36.973Z,0.46
2022-12-03T19:54:07.562Z,0.47
2022-12-03T19:56:34.710Z,0.47
2022-12-03T19:59:01.115Z,0.44
2022-12-03T20:01:30.707Z,0.43
2022-12-03T20:03:59.385Z,0.45
2022-12-03T20:06:29.265Z,0.44
2022-12-03T20:08:57.954Z,0.44
2022-12-03T20:11:30.266Z,0.43
2022-12-03T20:14:00.108Z,0.42
2022-12-03T20:16:27.893Z,0.42
2022-12-03T20:18:59.943Z,0.41
2022-12-03T20:21:28.269Z,0.42
2022-12-03T20:23:54.759Z,0.44
2022-12-03T20:26:21.697Z,0.46
2022-12-03T20:28:48.336Z,0.44
2022-12-03T20:31:17.460Z,0.42
2022-12-03T20:33:46.573Z,0.40
2022-12-03T20:36:14.375Z,0.40
2022-12-03T20:38:41.223Z,0.37
2022-12-03T20:41:11.332Z,0.37
2022-12-03T20:43:38.294Z,0.38
2022-12-03T20:46:16.844Z,0.39
2022-12-03T20:48:44.294Z,0.40
2022-12-03T20:51:16.214Z,0.42
2022-12-03T20:53:43.239Z,0.40
2022-12-03T20:56:10.352Z,0.40
2022-12-03T20:58:36.858Z,0.39
2022-12-03T21:01:29.111Z,0.38
2022-12-03T21:03:57.292Z,0.37
2022-12-03T21:06:26.187Z,0.37
2022-12-03T21:08:54.566Z,0.38
2022-12-03T21:11:24.714Z,0.40
2022-12-03T21:13:52.345Z,0.36
2022-12-03T21:16:34.479Z,0.36
2022-12-03T21:19:09.689Z,0.36
2022-12-03T21:21:36.718Z,0.33
2022-12-03T21:24:03.247Z,0.30
2022-12-03T21:26:29.681Z,0.33
2022-12-03T21:28:56.301Z,0.30
2022-12-03T21:31:25.845Z,0.28
2022-12-03T21:33:53.525Z,0.26
2022-12-03T21:36:20.138Z,0.27
2022-12-03T21:38:47.016Z,0.29
2022-12-03T21:41:14.509Z,0.29
2022-12-03T21:43:41.764Z,0.28
2022-12-03T21:47:09.616Z,0.26
2022-12-03T21:48:56.094Z,0.29
2022-12-03T21:51:22.665Z,0.30
2022-12-03T21:53:49.245Z,0.30
2022-12-03T21:56:18.695Z,0.29
2022-12-03T21:58:46.106Z,0.29
2022-12-03T22:01:21.390Z,0.27
2022-12-03T22:03:48.170Z,0.27
2022-12-03T22:06:15.670Z,0.28
2022-12-03T22:08:42.754Z,0.31
2022-12-03T22:11:15.669Z,0.31
2022-12-03T22:13:42.255Z,0.27
2022-12-03T22:16:12.096Z,0.28
2022-12-03T22:18:38.866Z,0.27
2022-12-03T22:21:07.121Z,0.28
2022-12-03T22:23:34.136Z,0.27
2022-12-03T22:26:06.930Z,0.26
2022-12-03T22:28:34.231Z,0.27
2022-12-03T22:31:05.358Z,0.29
2022-12-03T22:33:32.099Z,0.28
2022-12-03T22:36:00.554Z,0.28
2022-12-03T22:38:28.644Z,0.26
2022-12-03T22:40:55.242Z,0.28
2022-12-03T22:43:22.090Z,0.31
2022-12-03T22:45:52.345Z,0.31
2022-12-03T22:48:18.762Z,0.31
2022-12-03T22:50:47.272Z,0.31
2022-12-03T22:53:14.704Z,0.29
2022-12-03T22:55:42.127Z,0.30
2022-12-03T22:58:09.866Z,0.31
2022-12-03T23:00:39.145Z,0.31
2022-12-03T23:03:06.787Z,0.29
2022-12-03T23:05:36.860Z,0.27
2022-12-03T23:08:05.347Z,0.27
2022-12-03T23:10:36.372Z,0.28
2022-12-03T23:13:03.322Z,0.26
2022-12-03T23:15:29.871Z,0.23
2022-12-03T23:17:56.967Z,0.25
2022-12-03T23:20:24.043Z,0.25
2022-12-03T23:22:51.364Z,0.27
2022-12-03T23:25:18.657Z,0.27
2022-12-03T23:27:45.848Z,0.24
2022-12-03T23:30:15.101Z,0.25
2022-12-03T23:32:44.318Z,0.25
2022-12-03T23:35:12.128Z,0.26
2022-12-03T23:37:38.587Z,0.28
2022-12-03T23:40:05.675Z,0.29
2022-12-03T23:42:32.406Z,0.29
2022-12-03T23:44:58.808Z,0.28
2022-12-03T23:47:25.274Z,0.28
2022-12-03T23:49:51.887Z,0.25
2022-12-03T23:52:18.426Z,0.26
2022-12-03T23:54:44.849Z,0.27
2022-12-03T23:57:15.154Z,0.27
2022-12-03T23:59:42.153Z,0.27
